Thunder radar more information blitzortung!


Radar de pluja more information rain snow radar


Visita la nostra xarxa de llocs de meteo:

Template documentation
and downloads

And another site



No particular awareness of the weather is required.    There are no Weather-warnings

Pagina Historial Weather Underground text

Diari Resum Marc 24, 2016 Unitats:  Mètric    Imperial   Tant
« Previous Dia
SegĂźent Dia »
Diari Setmana Mensual Anual Personalitzada
  Maxima: Minima: Media:
Temperatura: -17.8 °C -14.8 °C -10.9 °C
Punt de rosada: -17.8 °C -19.7 °C -15.9 °C
Humitat: Humidity % 42 % 55 %
Wind Speed: 0 km/h 0 km/h 10 km/h
RĂ fegues de vent: 0 km/h - -
Vent:- - SW
Pression baro: 0 hPa 34130.9 hPa -
Precipitacions: 0 mm    
Historical Graphs
 
 
Dades de taula per Marc 24, 2016
Temps Temperatura Punt de rosada Pression baro Vent Wind Speed RĂ fegues de vent Humitat Rainfall Rate (Hourly)
-17.8 °C -17.8 °C 0 hPa Calm     Humidity % 0 mm
00:00 -14.2 °C -19.3 °C 34198.6 hPa West 2.6 km/h 7.7 km/h 52 % 0 mm
00:04 -12.7 °C -19.5 °C 34130.9 hPa WSW 3.7 km/h 3.7 km/h 42 % 0 mm
00:10 -14.3 °C -19.3 °C 34164.7 hPa WSW 2.6 km/h 5.1 km/h 52 % 0 mm
00:20 -14.3 °C -19.4 °C 34164.7 hPa WSW 2.6 km/h 7.7 km/h 52 % 0 mm
00:30 -14.4 °C -19.5 °C 34198.6 hPa WSW 5.1 km/h 7.7 km/h 52 % 0 mm
00:40 -14.1 °C -19.1 °C 34198.6 hPa WSW 2.6 km/h 5.1 km/h 53 % 0 mm
00:50 -14.5 °C -19.4 °C 34198.6 hPa ENE 7.7 km/h 7.7 km/h 53 % 0 mm
01:00 -14.8 °C -19.7 °C 34256.2 hPa East 5.1 km/h 12.9 km/h 53 % 0 mm
01:10 -14.7 °C -19.6 °C 34256.2 hPa ESE 2.6 km/h 5.1 km/h 53 % 0 mm
01:20 -14.3 °C -19.3 °C 34256.2 hPa West 2.6 km/h 5.1 km/h 53 % 0 mm
01:30 -14.4 °C -19.3 °C 34256.2 hPa WSW 5.1 km/h 7.7 km/h 53 % 0 mm
01:40 -14.2 °C -19.2 °C 34256.2 hPa WSW 5.1 km/h 10.3 km/h 53 % 0 mm
01:50 -13.8 °C -18.8 °C 34256.2 hPa Calm   2.6 km/h 53 % 0 mm
02:00 -13.3 °C -18.3 °C 34222.3 hPa ENE 5.1 km/h 5.1 km/h 53 % 0 mm
02:10 -13.2 °C -18.3 °C 34256.2 hPa Calm   7.7 km/h 52 % 0 mm
02:20 -12.9 °C -18.1 °C 34256.2 hPa NE 5.1 km/h 7.7 km/h 52 % 0 mm
02:30 -12.6 °C -17.8 °C 34293.4 hPa ENE 2.6 km/h 5.1 km/h 52 % 0 mm
02:40 -12.4 °C -17.6 °C 34327.3 hPa ENE 7.7 km/h 7.7 km/h 52 % 0 mm
03:00 -11.8 °C -17.3 °C 34327.3 hPa WNW 5.1 km/h 12.9 km/h 51 % 0 mm
03:10 -11.9 °C -17.3 °C 34327.3 hPa ENE 12.9 km/h 12.9 km/h 51 % 0 mm
03:20 -11.6 °C -17.1 °C 34327.3 hPa ESE 5.1 km/h 10.3 km/h 51 % 0 mm
03:30 -11.2 °C -16.7 °C 34327.3 hPa WSW 2.6 km/h 10.3 km/h 51 % 0 mm
03:40 -10.9 °C -16.5 °C 34327.3 hPa West 2.6 km/h 5.1 km/h 50 % 0 mm
03:50 -10.8 °C -16.4 °C 34327.3 hPa WSW 2.6 km/h 7.7 km/h 50 % 0 mm
04:00 -10.4 °C -16.3 °C 34361.1 hPa West 7.7 km/h 7.7 km/h 49 % 0 mm
04:10 -10.6 °C -16.4 °C 34327.3 hPa WNW 5.1 km/h 7.7 km/h 49 % 0 mm
04:20 -10.3 °C -16 °C 34327.3 hPa WSW 5.1 km/h 10.3 km/h 50 % 0 mm
04:30 -9.9 °C -15.7 °C 34361.1 hPa SW 5.1 km/h 12.9 km/h 50 % 0 mm
04:40 -9.9 °C -15.5 °C 34361.1 hPa SW 7.7 km/h 10.3 km/h 51 % 0 mm
04:50 -9.9 °C -15.4 °C 34361.1 hPa SW 15.6 km/h 18.2 km/h 51 % 0 mm
05:00 -9.8 °C -15.3 °C 34361.1 hPa SW 12.9 km/h 18.2 km/h 51 % 0 mm
05:10 -9.6 °C -15.2 °C 34361.1 hPa SW 5.1 km/h 20.8 km/h 51 % 0 mm
05:20 -9.6 °C -15.1 °C 34361.1 hPa SW 5.1 km/h 20.8 km/h 51 % 0 mm
05:30 -9.4 °C -15.1 °C 34361.1 hPa SW 5.1 km/h 20.8 km/h 51 % 0 mm
05:40 -9.3 °C -15.1 °C 34361.1 hPa SW 12.9 km/h 15.6 km/h 50 % 0 mm
05:50 -9.1 °C -15 °C 34361.1 hPa SW 7.7 km/h 15.6 km/h 49 % 0 mm
06:00 -8.8 °C -14.8 °C 34361.1 hPa WSW 7.7 km/h 12.9 km/h 49 % 0 mm
06:10 -8.9 °C -14.8 °C 34361.1 hPa WSW 5.1 km/h 20.8 km/h 49 % 0 mm
06:20 -8.5 °C -14.3 °C 34361.1 hPa SW 15.6 km/h 15.6 km/h 50 % 0 mm
06:30 -8.7 °C -14.6 °C 34361.1 hPa SW 15.6 km/h 25.9 km/h 49 % 0 mm
06:40 -8.4 °C -14.4 °C 34361.1 hPa SW 18.2 km/h 18.2 km/h 49 % 0 mm
06:50 -8.3 °C -14.3 °C 34361.1 hPa WSW 7.7 km/h 15.6 km/h 49 % 0 mm
07:00 -8.3 °C -14.5 °C 34361.1 hPa SW 5.1 km/h 20.8 km/h 48 % 0 mm
07:10 -8.3 °C -14.5 °C 34361.1 hPa SW 12.9 km/h 20.8 km/h 48 % 0 mm
07:20 -8 °C -14 °C 34361.1 hPa SW 15.6 km/h 15.6 km/h 49 % 0 mm
07:30 -8.1 °C -14.1 °C 34361.1 hPa SW 20.8 km/h 20.8 km/h 49 % 0 mm
07:40 -7.9 °C -14 °C 34361.1 hPa SSW 18.2 km/h 18.2 km/h 49 % 0 mm
07:50 -8.2 °C -14.2 °C 34361.1 hPa SW 15.6 km/h 20.8 km/h 49 % 0 mm
08:00 -8.4 °C -14.3 °C 34361.1 hPa WSW 18.2 km/h 25.9 km/h 50 % 0 mm
08:10 -8.2 °C -14.2 °C 34361.1 hPa SW 12.9 km/h 25.9 km/h 49 % 0 mm
08:20 -8.1 °C -14.1 °C 34361.1 hPa SW 15.6 km/h 20.8 km/h 49 % 0 mm
08:30 -8.1 °C -14.1 °C 34327.3 hPa SW 7.7 km/h 18.2 km/h 49 % 0 mm
14:32 -8.1 °C -14.1 °C 34327.3 hPa SW 9 km/h 15.6 km/h 49 % 0 mm
14:37 -7.9 °C -14 °C 34327.3 hPa SSW 20.9 km/h 20.9 km/h 49 % 0 mm
14:42 -7.8 °C -13.8 °C 34327.3 hPa West 10.3 km/h 10.3 km/h 49 % 0 mm
14:47 -8 °C -14 °C 34327.3 hPa WSW 20.9 km/h 20.9 km/h 49 % 0 mm
14:52 -8.1 °C -14.3 °C 34327.3 hPa SSW 20.9 km/h 20.9 km/h 48 % 0 mm
14:57 -8 °C -14.2 °C 34327.3 hPa SW 38.8 km/h 38.8 km/h 48 % 0 mm
15:02 -7.7 °C -13.8 °C 34327.3 hPa WSW 15 km/h 15 km/h 49 % 0 mm
15:07 -7.7 °C -13.9 °C 34327.3 hPa SW 20.9 km/h 20.9 km/h 48 % 0 mm
15:12 -7.8 °C -14.1 °C 34327.3 hPa SSW 15 km/h 15 km/h 48 % 0 mm
15:17 -8 °C -14.3 °C 34327.3 hPa WSW 29.8 km/h 29.8 km/h 47 % 0 mm
15:22 -8.1 °C -14.4 °C 34327.3 hPa West 26.9 km/h 26.9 km/h 47 % 0 mm
15:27 -7.8 °C -14.2 °C 34327.3 hPa SSW 11.9 km/h 11.9 km/h 47 % 0 mm
15:32 -7.9 °C -14.3 °C 34327.3 hPa WSW 17.9 km/h 17.9 km/h 47 % 0 mm
15:37 -7.9 °C -14.5 °C 34327.3 hPa WSW 26.9 km/h 26.9 km/h 46 % 0 mm
15:47 -7.9 °C -14.4 °C 34327.3 hPa SE 17.9 km/h 17.9 km/h 46 % 0 mm
15:57 -8.1 °C -14.8 °C 34327.3 hPa South 23.8 km/h 23.8 km/h 45 % 0 mm
16:02 -8.2 °C -14.9 °C 34327.3 hPa WSW 24.3 km/h 24.3 km/h 45 % 0 mm
16:07 -8.2 °C -15.1 °C 34327.3 hPa SW 26.9 km/h 26.9 km/h 44 % 0 mm
16:12 -7.9 °C -14.7 °C 34327.3 hPa WSW 15 km/h 15 km/h 45 % 0 mm
16:17 -7.9 °C -14.8 °C 34327.3 hPa SW 20.9 km/h 20.9 km/h 44 % 0 mm
16:22 -7.8 °C -14.7 °C 34327.3 hPa WSW 17.9 km/h 17.9 km/h 44 % 0 mm
16:27 -8.2 °C -15.3 °C 34327.3 hPa SW 32.8 km/h 32.8 km/h 43 % 0 mm
16:32 -8.2 °C -15.3 °C 34327.3 hPa SW 26.9 km/h 26.9 km/h 43 % 0 mm
16:37 -8.1 °C -15.1 °C 34327.3 hPa SW 17.9 km/h 17.9 km/h 43 % 0 mm
16:42 -8.2 °C -15.2 °C 34327.3 hPa WNW 26.9 km/h 26.9 km/h 43 % 0 mm
16:47 -8.1 °C -15.2 °C 34327.3 hPa SW 15 km/h 15 km/h 43 % 0 mm
16:52 -7.9 °C -14.8 °C 34361.1 hPa South 6.8 km/h 6.8 km/h 44 % 0 mm
16:57 -8.1 °C -15.1 °C 34361.1 hPa SW 23.8 km/h 23.8 km/h 43 % 0 mm
17:02 -8.2 °C -15.3 °C 34361.1 hPa West 17.9 km/h 17.9 km/h 43 % 0 mm
17:07 -8.3 °C -15.4 °C 34361.1 hPa SW 34.9 km/h 34.9 km/h 43 % 0 mm
17:12 -8.3 °C -15.4 °C 34361.1 hPa SSW 15 km/h 15 km/h 43 % 0 mm
17:17 -8.3 °C -15.3 °C 34361.1 hPa West 11.9 km/h 11.9 km/h 43 % 0 mm
17:22 -8.4 °C -15.4 °C 34361.1 hPa SW 17.9 km/h 17.9 km/h 43 % 0 mm
17:27 -8.4 °C -15.4 °C 34361.1 hPa SW 20.9 km/h 20.9 km/h 43 % 0 mm
17:32 -8.5 °C -15.5 °C 34361.1 hPa West 11.9 km/h 11.9 km/h 43 % 0 mm
17:37 -8.4 °C -15.2 °C 34395 hPa SW 11.1 km/h 11.1 km/h 44 % 0 mm
17:42 -8.4 °C -15.4 °C 34395 hPa SW 17.9 km/h 17.9 km/h 43 % 0 mm
17:47 -8.5 °C -15.5 °C 34395 hPa West 23.8 km/h 23.8 km/h 43 % 0 mm
17:52 -8.6 °C -15.6 °C 34395 hPa SW 12.7 km/h 12.7 km/h 43 % 0 mm
17:57 -8.6 °C -15.6 °C 34395 hPa WSW 11.9 km/h 11.9 km/h 43 % 0 mm
18:02 -8.6 °C -15.6 °C 34395 hPa SW 11.9 km/h 11.9 km/h 43 % 0 mm
18:07 -8.8 °C -15.8 °C 34395 hPa SW 17.9 km/h 17.9 km/h 43 % 0 mm
18:12 -9.1 °C -15.9 °C 34395 hPa SSW 14 km/h 14 km/h 44 % 0 mm
18:17 -9.2 °C -16 °C 34395 hPa West 11.9 km/h 11.9 km/h 44 % 0 mm
18:22 -9.4 °C -16 °C 34395 hPa SW 15.3 km/h 15.3 km/h 45 % 0 mm
18:27 -9.4 °C -15.9 °C 34395 hPa SSW 11.9 km/h 11.9 km/h 46 % 0 mm
18:32 -9.6 °C -15.9 °C 34395 hPa WSW 15 km/h 15 km/h 46 % 0 mm
18:47 -10 °C -15.7 °C 34395 hPa SW 15 km/h 15.6 km/h 50 % 0 mm
18:50 -12.8 °C -16 °C 34496.6 hPa WSW 2.6 km/h 5.1 km/h 67 % 0 mm
18:52 -10.1 °C -15.8 °C 34395 hPa SW 15 km/h 15 km/h 50 % 0 mm
18:57 -10.2 °C -15.7 °C 34395 hPa SSW 10.3 km/h 10.3 km/h 51 % 0 mm
19:00 -12.8 °C -15.8 °C 34496.6 hPa WSW 2.6 km/h 5.1 km/h 69 % 0 mm
19:02 -10.3 °C -15.9 °C 34395 hPa SW 11.9 km/h 11.9 km/h 51 % 0 mm
19:07 -10.4 °C -15.7 °C 34395 hPa SSW 6.3 km/h 6.3 km/h 52 % 0 mm
19:10 -12.9 °C -15.8 °C 34496.6 hPa Calm     70 % 0 mm
19:12 -10.4 °C -15.8 °C 34395 hPa SW 20.9 km/h 20.9 km/h 52 % 0 mm
19:17 -10.5 °C -15.9 °C 34395 hPa SSW 9 km/h 9 km/h 52 % 0 mm
19:20 -13.1 °C -16.1 °C 34496.6 hPa WSW 2.6 km/h 2.6 km/h 69 % 0 mm
19:22 -10.6 °C -15.8 °C 34395 hPa West 9 km/h 9 km/h 53 % 0 mm
19:27 -10.7 °C -15.9 °C 34395 hPa SW 6 km/h 6 km/h 53 % 0 mm
19:30 -13.1 °C -16.1 °C 34496.6 hPa Calm   2.6 km/h 69 % 0 mm
19:32 -10.8 °C -15.9 °C 34395 hPa SW 11.9 km/h 11.9 km/h 53 % 0 mm
19:37 -10.8 °C -15.7 °C 34395 hPa WSW 14.5 km/h 14.5 km/h 55 % 0 mm
19:40 -13.2 °C -16.1 °C 34496.6 hPa Calm     70 % 0 mm
19:42 -10.9 °C -15.7 °C 34395 hPa WSW 9 km/h 9.8 km/h 56 % 0 mm
19:47 -11 °C -15.6 °C 34395 hPa SW 9 km/h 9 km/h 57 % 0 mm
19:50 -13.3 °C -16 °C 34496.6 hPa Calm     71 % 0 mm
19:52 -11.1 °C -15.5 °C 34395 hPa SSW 11.9 km/h 11.9 km/h 58 % 0 mm
19:57 -11.1 °C -15.6 °C 34395 hPa West 6.8 km/h 6.8 km/h 58 % 0 mm
20:00 -13.3 °C -16 °C 34496.6 hPa Calm   5.1 km/h 71 % 0 mm
20:02 -11.2 °C -15.5 °C 34395 hPa WSW 9 km/h 9 km/h 59 % 0 mm
20:07 -11.2 °C -15.5 °C 34428.8 hPa SW 11.9 km/h 11.9 km/h 59 % 0 mm
20:10 -13.3 °C -16.1 °C 34496.6 hPa Calm     71 % 0 mm
20:12 -11.3 °C -15.4 °C 34428.8 hPa West 9 km/h 9.3 km/h 60 % 0 mm
20:17 -11.3 °C -15.7 °C 34428.8 hPa WNW 11.9 km/h 11.9 km/h 59 % 0 mm
20:20 -13.4 °C -16 °C 34496.6 hPa Calm     72 % 0 mm
20:22 -11.4 °C -15.7 °C 34428.8 hPa WSW 11.9 km/h 11.9 km/h 59 % 0 mm
20:27 -11.4 °C -15.7 °C 34428.8 hPa WSW 11.9 km/h 11.9 km/h 59 % 0 mm
20:30 -13.4 °C -16.1 °C 34496.6 hPa Calm   5.1 km/h 72 % 0 mm
20:32 -11.4 °C -15.7 °C 34428.8 hPa WSW 17.9 km/h 17.9 km/h 59 % 0 mm
20:37 -11.5 °C -15.9 °C 34462.7 hPa WSW 9 km/h 9 km/h 58 % 0 mm
20:40 -13.5 °C -16.3 °C 34496.6 hPa North 2.6 km/h 5.1 km/h 70 % 0 mm
20:42 -11.6 °C -16 °C 34462.7 hPa WSW 11.9 km/h 11.9 km/h 58 % 0 mm
20:47 -11.6 °C -16 °C 34462.7 hPa SW 11.9 km/h 11.9 km/h 58 % 0 mm
20:50 -13.6 °C -16.4 °C 34496.6 hPa Calm   2.6 km/h 70 % 0 mm
20:52 -11.6 °C -16 °C 34462.7 hPa WSW 6.3 km/h 6.3 km/h 58 % 0 mm
20:57 -11.7 °C -16.1 °C 34462.7 hPa WSW 9 km/h 9 km/h 58 % 0 mm
21:02 -11.7 °C -16.2 °C 34462.7 hPa WSW 9 km/h 9 km/h 58 % 0 mm
21:07 -11.8 °C -16.2 °C 34462.7 hPa SW 9 km/h 9 km/h 58 % 0 mm
21:10 -13.7 °C -16.5 °C 34496.6 hPa Calm   2.6 km/h 70 % 0 mm
21:12 -11.8 °C -16.1 °C 34462.7 hPa WSW 9 km/h 9 km/h 59 % 0 mm
21:17 -11.8 °C -16.1 °C 34462.7 hPa WSW 10.3 km/h 10.3 km/h 59 % 0 mm
21:20 -13.7 °C -16.5 °C 34496.6 hPa West 2.6 km/h 2.6 km/h 70 % 0 mm
21:22 -11.9 °C -16.2 °C 34462.7 hPa SW 11.9 km/h 11.9 km/h 59 % 0 mm
21:27 -11.9 °C -16.2 °C 34462.7 hPa WSW 9 km/h 9 km/h 59 % 0 mm
21:30 -13.7 °C -16.6 °C 34496.6 hPa Calm     70 % 0 mm
21:32 -11.9 °C -16 °C 34462.7 hPa WSW 11.9 km/h 11.9 km/h 60 % 0 mm
21:37 -11.9 °C -16.1 °C 34462.7 hPa SSW 15 km/h 15 km/h 60 % 0 mm
21:40 -13.7 °C -16.4 °C 34496.6 hPa Calm     71 % 0 mm
21:42 -12 °C -16.2 °C 34462.7 hPa WSW 11.9 km/h 11.9 km/h 60 % 0 mm
21:47 -12 °C -16.2 °C 34462.7 hPa WSW 9 km/h 9 km/h 60 % 0 mm
21:50 -13.7 °C -16.6 °C 34496.6 hPa Calm   2.6 km/h 70 % 0 mm
21:52 -12 °C -16 °C 34462.7 hPa West 9 km/h 9 km/h 61 % 0 mm
21:57 -12.1 °C -16.1 °C 34462.7 hPa SW 11.9 km/h 11.9 km/h 61 % 0 mm
22:00 -13.8 °C -16.6 °C 34496.6 hPa Calm   2.6 km/h 70 % 0 mm
22:02 -12.1 °C -16.1 °C 34462.7 hPa SW 6.8 km/h 6.8 km/h 61 % 0 mm
22:07 -12.1 °C -16.1 °C 34462.7 hPa WSW 7.6 km/h 7.6 km/h 61 % 0 mm
22:10 -13.9 °C -16.7 °C 34496.6 hPa Calm     71 % 0 mm
22:12 -12.1 °C -16 °C 34462.7 hPa SW 9 km/h 9 km/h 62 % 0 mm
22:17 -12.1 °C -16 °C 34462.7 hPa SW 11.1 km/h 11.1 km/h 62 % 0 mm
22:20 -14.1 °C -16.8 °C 34496.6 hPa Calm   5.1 km/h 71 % 0 mm
22:22 -12.1 °C -16 °C 34462.7 hPa SW 9 km/h 9 km/h 62 % 0 mm
22:27 -12.1 °C -16 °C 34462.7 hPa West 9 km/h 9 km/h 62 % 0 mm
22:30 -14.1 °C -16.7 °C 34496.6 hPa Calm   2.6 km/h 72 % 0 mm
22:32 -12.1 °C -16 °C 34462.7 hPa WSW 9.8 km/h 9.8 km/h 62 % 0 mm
22:37 -12.2 °C -16 °C 34462.7 hPa WSW 6 km/h 6 km/h 62 % 0 mm
22:40 -14.3 °C -17.1 °C 34496.6 hPa SW 5.1 km/h 7.7 km/h 71 % 0 mm
22:47 -12.2 °C -15.9 °C 34462.7 hPa WSW 6 km/h 6 km/h 63 % 0 mm
22:50 -14.4 °C -16.9 °C 34496.6 hPa Calm   7.7 km/h 73 % 0 mm
22:52 -12.2 °C -15.9 °C 34496.6 hPa SW 3.1 km/h   63 % 0 mm
22:57 -12.3 °C -16 °C 34496.6 hPa WSW 9 km/h 9 km/h 63 % 0 mm
23:00 -14.4 °C -16.8 °C 34496.6 hPa Calm     74 % 0 mm
23:02 -12.3 °C -16 °C 34496.6 hPa SW 3.1 km/h 3.1 km/h 63 % 0 mm
23:07 -12.3 °C -16.1 °C 34496.6 hPa WSW 6 km/h 6 km/h 63 % 0 mm
23:10 -14.3 °C -16.7 °C 34496.6 hPa SW 2.6 km/h 2.6 km/h 74 % 0 mm
23:12 -12.3 °C -16 °C 34496.6 hPa West 11.9 km/h 11.9 km/h 63 % 0 mm
23:17 -12.3 °C -16 °C 34496.6 hPa West 6 km/h 6 km/h 63 % 0 mm
23:20 -14.3 °C -16.7 °C 34496.6 hPa Calm   2.6 km/h 74 % 0 mm
23:22 -12.3 °C -16 °C 34462.7 hPa WSW 6 km/h 6 km/h 63 % 0 mm
23:27 -12.3 °C -15.9 °C 34462.7 hPa WSW 6 km/h 6 km/h 64 % 0 mm
23:30 -14.2 °C -16.6 °C 34496.6 hPa Calm   2.6 km/h 74 % 0 mm
23:32 -12.4 °C -16 °C 34462.7 hPa SW 4.2 km/h 5.1 km/h 64 % 0 mm
23:37 -12.4 °C -15.9 °C 34496.6 hPa West 3.7 km/h 3.7 km/h 65 % 0 mm
23:40 -14.3 °C -16.9 °C 34496.6 hPa South 2.6 km/h 5.1 km/h 72 % 0 mm
23:42 -12.4 °C -15.9 °C 34496.6 hPa SW 6 km/h 6 km/h 65 % 0 mm
23:47 -12.4 °C -15.9 °C 34496.6 hPa West 8 km/h 8 km/h 65 % 0 mm
23:50 -14.3 °C -16.7 °C 34496.6 hPa Calm   5.1 km/h 74 % 0 mm
23:52 -12.4 °C -15.8 °C 34496.6 hPa SW 3.7 km/h 3.7 km/h 66 % 0 mm
23:57 -12.4 °C -15.8 °C 34496.6 hPa WSW 9 km/h 9 km/h 66 % 0 mm
Meteo Sesrovires
Elogis d' Weather Underground - 3.5 mb

Guio original per  Jim McMurry - jmcmurry@mwt.net Adaptat per a la plantilla per  Wim van der Kuil - Leuven-Template.eu

Trobareu la nostra informacio del temps tambe a:

Weather Underground

AWEKAS